sensor_id;sensor_type;location;lat;lon;timestamp;P1;durP1;ratioP1;P2;durP2;ratioP2
5454;SDS011;2750;49.050;9.250;2023-12-14T00:00:54;11.00;;;9.70;;
5454;SDS011;2750;49.050;9.250;2023-12-14T00:05:57;9.93;;;8.90;;
5454;SDS011;2750;49.050;9.250;2023-12-14T00:11:02;13.77;;;9.30;;
5454;SDS011;2750;49.050;9.250;2023-12-14T00:16:05;13.60;;;8.70;;
5454;SDS011;2750;49.050;9.250;2023-12-14T00:21:09;9.80;;;8.30;;
5454;SDS011;2750;49.050;9.250;2023-12-14T00:26:11;11.67;;;9.37;;
5454;SDS011;2750;49.050;9.250;2023-12-14T00:31:12;10.20;;;8.93;;
5454;SDS011;2750;49.050;9.250;2023-12-14T00:36:19;12.00;;;8.43;;
5454;SDS011;2750;49.050;9.250;2023-12-14T00:41:20;9.87;;;7.80;;
5454;SDS011;2750;49.050;9.250;2023-12-14T00:46:22;10.70;;;8.67;;
5454;SDS011;2750;49.050;9.250;2023-12-14T00:51:24;12.60;;;8.83;;
5454;SDS011;2750;49.050;9.250;2023-12-14T00:56:26;14.13;;;9.17;;
5454;SDS011;2750;49.050;9.250;2023-12-14T01:01:28;14.87;;;10.17;;
5454;SDS011;2750;49.050;9.250;2023-12-14T01:06:30;14.77;;;10.13;;
5454;SDS011;2750;49.050;9.250;2023-12-14T01:11:32;11.67;;;9.70;;
5454;SDS011;2750;49.050;9.250;2023-12-14T01:16:33;11.70;;;9.33;;
5454;SDS011;2750;49.050;9.250;2023-12-14T01:21:36;12.93;;;9.97;;
5454;SDS011;2750;49.050;9.250;2023-12-14T01:26:38;14.20;;;9.73;;
5454;SDS011;2750;49.050;9.250;2023-12-14T01:31:39;14.33;;;9.63;;
5454;SDS011;2750;49.050;9.250;2023-12-14T01:36:42;12.77;;;9.23;;
5454;SDS011;2750;49.050;9.250;2023-12-14T01:41:44;12.60;;;8.47;;
5454;SDS011;2750;49.050;9.250;2023-12-14T01:46:45;14.07;;;9.27;;
5454;SDS011;2750;49.050;9.250;2023-12-14T01:51:48;13.30;;;9.63;;
5454;SDS011;2750;49.050;9.250;2023-12-14T01:56:50;12.53;;;10.13;;
5454;SDS011;2750;49.050;9.250;2023-12-14T02:01:52;16.43;;;11.00;;
5454;SDS011;2750;49.050;9.250;2023-12-14T02:06:57;13.43;;;10.33;;
5454;SDS011;2750;49.050;9.250;2023-12-14T02:12:00;15.57;;;11.13;;
5454;SDS011;2750;49.050;9.250;2023-12-14T02:17:01;18.00;;;13.13;;
5454;SDS011;2750;49.050;9.250;2023-12-14T02:22:04;20.70;;;11.27;;
5454;SDS011;2750;49.050;9.250;2023-12-14T02:27:07;14.43;;;9.80;;
5454;SDS011;2750;49.050;9.250;2023-12-14T02:32:08;14.83;;;10.10;;
5454;SDS011;2750;49.050;9.250;2023-12-14T02:37:10;13.77;;;8.83;;
5454;SDS011;2750;49.050;9.250;2023-12-14T02:42:13;13.93;;;9.63;;
5454;SDS011;2750;49.050;9.250;2023-12-14T02:47:15;16.17;;;11.13;;
5454;SDS011;2750;49.050;9.250;2023-12-14T02:52:16;21.43;;;12.30;;
5454;SDS011;2750;49.050;9.250;2023-12-14T02:57:19;18.37;;;12.47;;
5454;SDS011;2750;49.050;9.250;2023-12-14T03:02:21;18.93;;;12.57;;
5454;SDS011;2750;49.050;9.250;2023-12-14T03:07:23;18.27;;;12.33;;
5454;SDS011;2750;49.050;9.250;2023-12-14T03:12:25;17.97;;;12.07;;
5454;SDS011;2750;49.050;9.250;2023-12-14T03:17:27;20.80;;;13.50;;
5454;SDS011;2750;49.050;9.250;2023-12-14T03:22:28;18.37;;;12.47;;
5454;SDS011;2750;49.050;9.250;2023-12-14T03:27:31;17.97;;;11.87;;
5454;SDS011;2750;49.050;9.250;2023-12-14T03:32:33;17.90;;;12.80;;
5454;SDS011;2750;49.050;9.250;2023-12-14T03:37:34;24.97;;;12.67;;
5454;SDS011;2750;49.050;9.250;2023-12-14T03:42:37;17.20;;;11.20;;
5454;SDS011;2750;49.050;9.250;2023-12-14T03:47:39;19.80;;;10.53;;
5454;SDS011;2750;49.050;9.250;2023-12-14T03:52:40;17.63;;;10.90;;
5454;SDS011;2750;49.050;9.250;2023-12-14T03:57:43;21.57;;;10.83;;
5454;SDS011;2750;49.050;9.250;2023-12-14T04:02:45;22.07;;;13.23;;
5454;SDS011;2750;49.050;9.250;2023-12-14T04:07:46;20.43;;;13.43;;
5454;SDS011;2750;49.050;9.250;2023-12-14T04:12:49;19.20;;;14.20;;
5454;SDS011;2750;49.050;9.250;2023-12-14T04:17:51;23.93;;;14.70;;
5454;SDS011;2750;49.050;9.250;2023-12-14T04:22:52;26.30;;;17.67;;
5454;SDS011;2750;49.050;9.250;2023-12-14T04:27:55;25.97;;;17.83;;
5454;SDS011;2750;49.050;9.250;2023-12-14T04:32:56;30.43;;;17.40;;
5454;SDS011;2750;49.050;9.250;2023-12-14T04:37:58;27.27;;;17.17;;
5454;SDS011;2750;49.050;9.250;2023-12-14T04:43:01;27.17;;;18.70;;
5454;SDS011;2750;49.050;9.250;2023-12-14T04:48:02;27.27;;;18.47;;
5454;SDS011;2750;49.050;9.250;2023-12-14T04:53:04;24.23;;;15.17;;
5454;SDS011;2750;49.050;9.250;2023-12-14T04:58:07;26.43;;;16.10;;
5454;SDS011;2750;49.050;9.250;2023-12-14T05:03:08;21.83;;;15.43;;
5454;SDS011;2750;49.050;9.250;2023-12-14T05:08:10;26.97;;;15.90;;
5454;SDS011;2750;49.050;9.250;2023-12-14T05:13:13;23.13;;;16.77;;
5454;SDS011;2750;49.050;9.250;2023-12-14T05:18:15;31.63;;;18.73;;
5454;SDS011;2750;49.050;9.250;2023-12-14T05:23:16;26.40;;;19.20;;
5454;SDS011;2750;49.050;9.250;2023-12-14T05:28:19;23.07;;;16.17;;
5454;SDS011;2750;49.050;9.250;2023-12-14T05:33:20;26.90;;;17.43;;
5454;SDS011;2750;49.050;9.250;2023-12-14T05:38:22;24.50;;;16.43;;
5454;SDS011;2750;49.050;9.250;2023-12-14T05:43:25;27.77;;;18.67;;
5454;SDS011;2750;49.050;9.250;2023-12-14T05:48:26;27.90;;;17.13;;
5454;SDS011;2750;49.050;9.250;2023-12-14T05:53:28;31.10;;;18.27;;
5454;SDS011;2750;49.050;9.250;2023-12-14T05:58:31;32.83;;;18.53;;
5454;SDS011;2750;49.050;9.250;2023-12-14T06:03:33;28.27;;;17.87;;
5454;SDS011;2750;49.050;9.250;2023-12-14T06:08:34;33.93;;;19.27;;
5454;SDS011;2750;49.050;9.250;2023-12-14T06:13:37;30.37;;;21.07;;
5454;SDS011;2750;49.050;9.250;2023-12-14T06:18:40;34.93;;;21.23;;
5454;SDS011;2750;49.050;9.250;2023-12-14T06:23:43;31.23;;;19.87;;
5454;SDS011;2750;49.050;9.250;2023-12-14T06:28:46;34.60;;;22.50;;
5454;SDS011;2750;49.050;9.250;2023-12-14T06:33:47;36.20;;;21.13;;
5454;SDS011;2750;49.050;9.250;2023-12-14T06:38:49;34.03;;;22.27;;
5454;SDS011;2750;49.050;9.250;2023-12-14T06:43:52;31.63;;;20.30;;
5454;SDS011;2750;49.050;9.250;2023-12-14T06:48:54;33.43;;;21.80;;
5454;SDS011;2750;49.050;9.250;2023-12-14T06:53:56;33.83;;;21.73;;
5454;SDS011;2750;49.050;9.250;2023-12-14T06:58:59;39.60;;;23.93;;
5454;SDS011;2750;49.050;9.250;2023-12-14T07:04:01;46.43;;;28.30;;
5454;SDS011;2750;49.050;9.250;2023-12-14T07:09:03;36.10;;;22.83;;
5454;SDS011;2750;49.050;9.250;2023-12-14T07:14:06;35.37;;;22.10;;
5454;SDS011;2750;49.050;9.250;2023-12-14T07:19:08;38.77;;;23.50;;
5454;SDS011;2750;49.050;9.250;2023-12-14T07:24:10;45.03;;;28.07;;
5454;SDS011;2750;49.050;9.250;2023-12-14T07:29:13;37.10;;;23.83;;
5454;SDS011;2750;49.050;9.250;2023-12-14T07:34:15;39.90;;;24.03;;
5454;SDS011;2750;49.050;9.250;2023-12-14T07:39:16;40.33;;;26.23;;
5454;SDS011;2750;49.050;9.250;2023-12-14T07:44:20;36.03;;;23.10;;
5454;SDS011;2750;49.050;9.250;2023-12-14T07:49:21;39.77;;;24.87;;
5454;SDS011;2750;49.050;9.250;2023-12-14T07:54:23;40.83;;;24.77;;
5454;SDS011;2750;49.050;9.250;2023-12-14T07:59:28;36.27;;;24.70;;
5454;SDS011;2750;49.050;9.250;2023-12-14T08:04:30;35.60;;;23.83;;
5454;SDS011;2750;49.050;9.250;2023-12-14T08:09:33;37.27;;;24.83;;
5454;SDS011;2750;49.050;9.250;2023-12-14T08:14:36;33.70;;;22.37;;
5454;SDS011;2750;49.050;9.250;2023-12-14T08:19:41;38.37;;;25.27;;
5454;SDS011;2750;49.050;9.250;2023-12-14T08:24:42;35.57;;;23.37;;
5454;SDS011;2750;49.050;9.250;2023-12-14T08:29:45;34.50;;;22.17;;
5454;SDS011;2750;49.050;9.250;2023-12-14T08:34:47;31.47;;;22.07;;
5454;SDS011;2750;49.050;9.250;2023-12-14T08:39:48;31.07;;;21.53;;
5454;SDS011;2750;49.050;9.250;2023-12-14T08:44:51;33.60;;;22.40;;
5454;SDS011;2750;49.050;9.250;2023-12-14T08:49:52;28.03;;;19.57;;
5454;SDS011;2750;49.050;9.250;2023-12-14T08:54:54;37.57;;;22.23;;
5454;SDS011;2750;49.050;9.250;2023-12-14T08:59:57;28.50;;;19.60;;
5454;SDS011;2750;49.050;9.250;2023-12-14T09:04:59;29.07;;;20.17;;
5454;SDS011;2750;49.050;9.250;2023-12-14T09:10:01;24.77;;;18.00;;
5454;SDS011;2750;49.050;9.250;2023-12-14T09:15:04;28.87;;;18.27;;
5454;SDS011;2750;49.050;9.250;2023-12-14T09:20:06;24.83;;;17.43;;
5454;SDS011;2750;49.050;9.250;2023-12-14T09:25:09;27.23;;;16.83;;
5454;SDS011;2750;49.050;9.250;2023-12-14T09:30:12;26.17;;;17.60;;
5454;SDS011;2750;49.050;9.250;2023-12-14T09:35:14;29.27;;;19.03;;
5454;SDS011;2750;49.050;9.250;2023-12-14T09:40:16;25.20;;;17.10;;
5454;SDS011;2750;49.050;9.250;2023-12-14T09:45:20;24.40;;;17.90;;
5454;SDS011;2750;49.050;9.250;2023-12-14T09:50:24;31.30;;;18.63;;
5454;SDS011;2750;49.050;9.250;2023-12-14T09:55:26;28.97;;;19.30;;
5454;SDS011;2750;49.050;9.250;2023-12-14T10:00:36;26.23;;;18.17;;
5454;SDS011;2750;49.050;9.250;2023-12-14T10:05:38;27.10;;;17.97;;
5454;SDS011;2750;49.050;9.250;2023-12-14T10:10:40;26.83;;;15.23;;
5454;SDS011;2750;49.050;9.250;2023-12-14T10:15:43;20.93;;;13.30;;
5454;SDS011;2750;49.050;9.250;2023-12-14T10:20:46;20.40;;;12.33;;
5454;SDS011;2750;49.050;9.250;2023-12-14T10:25:48;17.10;;;12.10;;
5454;SDS011;2750;49.050;9.250;2023-12-14T10:30:50;17.43;;;13.23;;
5454;SDS011;2750;49.050;9.250;2023-12-14T10:35:52;18.83;;;12.73;;
5454;SDS011;2750;49.050;9.250;2023-12-14T10:40:54;17.17;;;11.40;;
5454;SDS011;2750;49.050;9.250;2023-12-14T10:46:00;17.53;;;13.13;;
5454;SDS011;2750;49.050;9.250;2023-12-14T10:51:03;20.40;;;14.00;;
5454;SDS011;2750;49.050;9.250;2023-12-14T10:56:06;16.90;;;14.10;;
5454;SDS011;2750;49.050;9.250;2023-12-14T11:01:14;20.60;;;15.57;;
5454;SDS011;2750;49.050;9.250;2023-12-14T11:06:27;20.13;;;14.90;;
5454;SDS011;2750;49.050;9.250;2023-12-14T11:11:31;18.33;;;14.13;;
5454;SDS011;2750;49.050;9.250;2023-12-14T11:16:42;19.20;;;14.40;;
5454;SDS011;2750;49.050;9.250;2023-12-14T11:21:46;20.63;;;16.27;;
5454;SDS011;2750;49.050;9.250;2023-12-14T11:26:48;24.20;;;15.90;;
5454;SDS011;2750;49.050;9.250;2023-12-14T11:31:51;20.10;;;14.77;;
5454;SDS011;2750;49.050;9.250;2023-12-14T11:36:53;24.00;;;15.70;;
5454;SDS011;2750;49.050;9.250;2023-12-14T11:41:59;20.63;;;15.03;;
5454;SDS011;2750;49.050;9.250;2023-12-14T11:47:02;21.07;;;15.53;;
5454;SDS011;2750;49.050;9.250;2023-12-14T11:52:04;20.67;;;14.03;;
5454;SDS011;2750;49.050;9.250;2023-12-14T11:57:05;18.30;;;14.00;;
5454;SDS011;2750;49.050;9.250;2023-12-14T12:02:10;16.97;;;12.93;;
5454;SDS011;2750;49.050;9.250;2023-12-14T12:07:11;17.90;;;13.77;;
5454;SDS011;2750;49.050;9.250;2023-12-14T12:12:13;16.23;;;12.80;;
5454;SDS011;2750;49.050;9.250;2023-12-14T12:17:16;15.80;;;12.43;;
5454;SDS011;2750;49.050;9.250;2023-12-14T12:22:19;15.43;;;9.50;;
5454;SDS011;2750;49.050;9.250;2023-12-14T12:27:20;14.73;;;10.40;;
5454;SDS011;2750;49.050;9.250;2023-12-14T12:32:24;13.57;;;9.80;;
5454;SDS011;2750;49.050;9.250;2023-12-14T12:37:25;15.40;;;9.43;;
5454;SDS011;2750;49.050;9.250;2023-12-14T12:42:27;10.23;;;8.90;;
5454;SDS011;2750;49.050;9.250;2023-12-14T12:47:30;13.23;;;9.60;;
5454;SDS011;2750;49.050;9.250;2023-12-14T12:52:32;6.30;;;4.20;;
5454;SDS011;2750;49.050;9.250;2023-12-14T12:57:33;4.20;;;3.60;;
5454;SDS011;2750;49.050;9.250;2023-12-14T13:02:36;6.23;;;4.00;;
5454;SDS011;2750;49.050;9.250;2023-12-14T13:07:38;6.40;;;4.40;;
5454;SDS011;2750;49.050;9.250;2023-12-14T13:12:40;6.03;;;3.37;;
5454;SDS011;2750;49.050;9.250;2023-12-14T13:17:43;4.77;;;3.30;;
5454;SDS011;2750;49.050;9.250;2023-12-14T13:22:45;4.83;;;3.90;;
5454;SDS011;2750;49.050;9.250;2023-12-14T13:27:46;5.77;;;4.50;;
5454;SDS011;2750;49.050;9.250;2023-12-14T13:32:49;5.03;;;4.20;;
5454;SDS011;2750;49.050;9.250;2023-12-14T13:37:51;5.33;;;4.70;;
5454;SDS011;2750;49.050;9.250;2023-12-14T13:42:52;8.43;;;6.43;;
5454;SDS011;2750;49.050;9.250;2023-12-14T13:47:55;8.33;;;5.00;;
5454;SDS011;2750;49.050;9.250;2023-12-14T13:52:58;8.33;;;5.93;;
5454;SDS011;2750;49.050;9.250;2023-12-14T13:57:59;10.43;;;7.33;;
5454;SDS011;2750;49.050;9.250;2023-12-14T14:03:03;9.13;;;7.10;;
5454;SDS011;2750;49.050;9.250;2023-12-14T14:08:05;9.90;;;7.87;;
5454;SDS011;2750;49.050;9.250;2023-12-14T14:13:06;12.13;;;9.37;;
5454;SDS011;2750;49.050;9.250;2023-12-14T14:18:09;14.00;;;10.57;;
5454;SDS011;2750;49.050;9.250;2023-12-14T14:23:11;12.83;;;10.50;;
5454;SDS011;2750;49.050;9.250;2023-12-14T14:28:12;15.27;;;11.40;;
5454;SDS011;2750;49.050;9.250;2023-12-14T14:33:15;18.43;;;12.90;;
5454;SDS011;2750;49.050;9.250;2023-12-14T14:38:18;15.43;;;11.73;;
5454;SDS011;2750;49.050;9.250;2023-12-14T14:43:20;18.57;;;13.13;;
5454;SDS011;2750;49.050;9.250;2023-12-14T14:48:24;18.53;;;13.67;;
5454;SDS011;2750;49.050;9.250;2023-12-14T14:53:25;22.37;;;14.73;;
5454;SDS011;2750;49.050;9.250;2023-12-14T14:58:27;18.80;;;14.63;;
5454;SDS011;2750;49.050;9.250;2023-12-14T15:03:29;25.13;;;14.17;;
5454;SDS011;2750;49.050;9.250;2023-12-14T15:08:31;20.13;;;14.63;;
5454;SDS011;2750;49.050;9.250;2023-12-14T15:13:33;22.97;;;16.17;;
5454;SDS011;2750;49.050;9.250;2023-12-14T15:18:36;22.83;;;15.33;;
5454;SDS011;2750;49.050;9.250;2023-12-14T15:23:41;23.33;;;14.67;;
5454;SDS011;2750;49.050;9.250;2023-12-14T15:28:44;26.03;;;15.53;;
5454;SDS011;2750;49.050;9.250;2023-12-14T15:33:47;25.17;;;16.60;;
5454;SDS011;2750;49.050;9.250;2023-12-14T15:38:48;24.97;;;15.63;;
5454;SDS011;2750;49.050;9.250;2023-12-14T15:43:50;24.40;;;14.57;;
5454;SDS011;2750;49.050;9.250;2023-12-14T15:48:52;24.80;;;15.43;;
5454;SDS011;2750;49.050;9.250;2023-12-14T15:53:54;23.80;;;14.50;;
5454;SDS011;2750;49.050;9.250;2023-12-14T15:58:56;26.07;;;14.73;;
5454;SDS011;2750;49.050;9.250;2023-12-14T16:03:59;24.23;;;13.70;;
5454;SDS011;2750;49.050;9.250;2023-12-14T16:09:01;23.50;;;14.47;;
5454;SDS011;2750;49.050;9.250;2023-12-14T16:14:03;24.13;;;13.87;;
5454;SDS011;2750;49.050;9.250;2023-12-14T16:19:06;21.67;;;12.80;;
5454;SDS011;2750;49.050;9.250;2023-12-14T16:24:07;20.23;;;12.30;;
5454;SDS011;2750;49.050;9.250;2023-12-14T16:29:09;23.70;;;14.43;;
5454;SDS011;2750;49.050;9.250;2023-12-14T16:34:11;23.87;;;14.00;;
5454;SDS011;2750;49.050;9.250;2023-12-14T16:39:14;20.77;;;12.97;;
5454;SDS011;2750;49.050;9.250;2023-12-14T16:44:16;27.73;;;16.03;;
5454;SDS011;2750;49.050;9.250;2023-12-14T16:49:18;26.77;;;15.97;;
5454;SDS011;2750;49.050;9.250;2023-12-14T16:54:20;27.67;;;15.70;;
5454;SDS011;2750;49.050;9.250;2023-12-14T16:59:22;26.63;;;16.20;;
5454;SDS011;2750;49.050;9.250;2023-12-14T17:04:24;23.63;;;15.70;;
5454;SDS011;2750;49.050;9.250;2023-12-14T17:09:26;27.60;;;16.77;;
5454;SDS011;2750;49.050;9.250;2023-12-14T17:14:29;24.20;;;16.67;;
5454;SDS011;2750;49.050;9.250;2023-12-14T17:19:32;23.90;;;15.27;;
5454;SDS011;2750;49.050;9.250;2023-12-14T17:24:34;24.97;;;16.60;;
5454;SDS011;2750;49.050;9.250;2023-12-14T17:29:35;26.80;;;16.70;;
5454;SDS011;2750;49.050;9.250;2023-12-14T17:34:38;27.27;;;15.80;;
5454;SDS011;2750;49.050;9.250;2023-12-14T17:39:39;27.70;;;16.37;;
5454;SDS011;2750;49.050;9.250;2023-12-14T17:44:41;23.13;;;15.67;;
5454;SDS011;2750;49.050;9.250;2023-12-14T17:49:44;27.17;;;14.03;;
5454;SDS011;2750;49.050;9.250;2023-12-14T17:54:45;19.97;;;12.27;;
5454;SDS011;2750;49.050;9.250;2023-12-14T17:59:49;21.37;;;13.23;;
5454;SDS011;2750;49.050;9.250;2023-12-14T18:04:52;25.93;;;15.20;;
5454;SDS011;2750;49.050;9.250;2023-12-14T18:09:53;24.27;;;14.27;;
5454;SDS011;2750;49.050;9.250;2023-12-14T18:14:55;24.03;;;14.70;;
5454;SDS011;2750;49.050;9.250;2023-12-14T18:19:58;22.33;;;12.77;;
5454;SDS011;2750;49.050;9.250;2023-12-14T18:24:59;23.30;;;12.77;;
5454;SDS011;2750;49.050;9.250;2023-12-14T18:30:01;20.20;;;13.20;;
5454;SDS011;2750;49.050;9.250;2023-12-14T18:35:05;21.07;;;13.37;;
5454;SDS011;2750;49.050;9.250;2023-12-14T18:40:07;21.67;;;12.90;;
5454;SDS011;2750;49.050;9.250;2023-12-14T18:45:09;17.77;;;11.03;;
5454;SDS011;2750;49.050;9.250;2023-12-14T18:50:12;16.17;;;9.17;;
5454;SDS011;2750;49.050;9.250;2023-12-14T18:55:14;13.60;;;9.33;;
5454;SDS011;2750;49.050;9.250;2023-12-14T19:00:16;14.17;;;9.50;;
5454;SDS011;2750;49.050;9.250;2023-12-14T19:05:19;16.73;;;9.20;;
5454;SDS011;2750;49.050;9.250;2023-12-14T19:10:23;16.07;;;9.03;;
5454;SDS011;2750;49.050;9.250;2023-12-14T19:15:25;12.47;;;8.07;;
5454;SDS011;2750;49.050;9.250;2023-12-14T19:20:28;16.90;;;10.53;;
5454;SDS011;2750;49.050;9.250;2023-12-14T19:25:29;16.63;;;10.77;;
5454;SDS011;2750;49.050;9.250;2023-12-14T19:30:31;17.83;;;10.37;;
5454;SDS011;2750;49.050;9.250;2023-12-14T19:35:34;16.80;;;9.20;;
5454;SDS011;2750;49.050;9.250;2023-12-14T19:40:35;13.53;;;9.27;;
5454;SDS011;2750;49.050;9.250;2023-12-14T19:45:37;14.83;;;8.60;;
5454;SDS011;2750;49.050;9.250;2023-12-14T19:50:40;11.17;;;7.83;;
5454;SDS011;2750;49.050;9.250;2023-12-14T19:55:42;12.43;;;8.33;;
5454;SDS011;2750;49.050;9.250;2023-12-14T20:00:44;11.13;;;7.87;;
5454;SDS011;2750;49.050;9.250;2023-12-14T20:05:46;10.33;;;7.83;;
5454;SDS011;2750;49.050;9.250;2023-12-14T20:10:48;12.17;;;8.20;;
5454;SDS011;2750;49.050;9.250;2023-12-14T20:15:50;9.40;;;6.70;;
5454;SDS011;2750;49.050;9.250;2023-12-14T20:20:53;8.97;;;6.97;;
5454;SDS011;2750;49.050;9.250;2023-12-14T20:25:54;9.83;;;6.60;;
5454;SDS011;2750;49.050;9.250;2023-12-14T20:30:56;10.47;;;6.17;;
5454;SDS011;2750;49.050;9.250;2023-12-14T20:35:59;8.90;;;6.90;;
5454;SDS011;2750;49.050;9.250;2023-12-14T20:41:00;8.83;;;6.13;;
5454;SDS011;2750;49.050;9.250;2023-12-14T20:46:02;8.27;;;5.37;;
5454;SDS011;2750;49.050;9.250;2023-12-14T20:51:05;10.87;;;5.73;;
5454;SDS011;2750;49.050;9.250;2023-12-14T20:56:07;9.30;;;6.20;;
5454;SDS011;2750;49.050;9.250;2023-12-14T21:01:09;9.20;;;6.07;;
5454;SDS011;2750;49.050;9.250;2023-12-14T21:06:12;6.27;;;4.10;;
5454;SDS011;2750;49.050;9.250;2023-12-14T21:11:14;9.43;;;6.50;;
5454;SDS011;2750;49.050;9.250;2023-12-14T21:16:16;10.10;;;6.13;;
5454;SDS011;2750;49.050;9.250;2023-12-14T21:21:19;10.43;;;7.10;;
5454;SDS011;2750;49.050;9.250;2023-12-14T21:26:20;9.43;;;6.17;;
5454;SDS011;2750;49.050;9.250;2023-12-14T21:31:22;9.50;;;6.40;;
5454;SDS011;2750;49.050;9.250;2023-12-14T21:36:25;8.67;;;5.40;;
5454;SDS011;2750;49.050;9.250;2023-12-14T21:41:26;12.93;;;6.00;;
5454;SDS011;2750;49.050;9.250;2023-12-14T21:46:28;8.50;;;5.60;;
5454;SDS011;2750;49.050;9.250;2023-12-14T21:51:31;11.13;;;6.97;;
5454;SDS011;2750;49.050;9.250;2023-12-14T21:56:33;8.47;;;6.07;;
5454;SDS011;2750;49.050;9.250;2023-12-14T22:01:35;11.03;;;5.20;;
5454;SDS011;2750;49.050;9.250;2023-12-14T22:06:37;9.93;;;6.77;;
5454;SDS011;2750;49.050;9.250;2023-12-14T22:11:39;6.93;;;5.27;;
5454;SDS011;2750;49.050;9.250;2023-12-14T22:16:40;9.13;;;5.63;;
5454;SDS011;2750;49.050;9.250;2023-12-14T22:21:43;10.17;;;6.67;;
5454;SDS011;2750;49.050;9.250;2023-12-14T22:26:45;11.80;;;6.73;;
5454;SDS011;2750;49.050;9.250;2023-12-14T22:31:46;9.37;;;6.03;;
5454;SDS011;2750;49.050;9.250;2023-12-14T22:36:49;9.67;;;6.70;;
5454;SDS011;2750;49.050;9.250;2023-12-14T22:41:51;10.57;;;7.87;;
5454;SDS011;2750;49.050;9.250;2023-12-14T22:46:52;12.60;;;8.10;;
5454;SDS011;2750;49.050;9.250;2023-12-14T22:51:55;12.77;;;7.70;;
5454;SDS011;2750;49.050;9.250;2023-12-14T22:56:57;13.60;;;7.83;;
5454;SDS011;2750;49.050;9.250;2023-12-14T23:01:58;13.23;;;7.43;;
5454;SDS011;2750;49.050;9.250;2023-12-14T23:07:01;12.00;;;7.53;;
5454;SDS011;2750;49.050;9.250;2023-12-14T23:12:03;11.97;;;7.80;;
5454;SDS011;2750;49.050;9.250;2023-12-14T23:17:04;13.37;;;7.93;;
5454;SDS011;2750;49.050;9.250;2023-12-14T23:22:07;13.37;;;8.00;;
5454;SDS011;2750;49.050;9.250;2023-12-14T23:27:09;15.20;;;9.07;;
5454;SDS011;2750;49.050;9.250;2023-12-14T23:32:10;14.40;;;8.67;;
5454;SDS011;2750;49.050;9.250;2023-12-14T23:37:14;13.87;;;8.50;;
5454;SDS011;2750;49.050;9.250;2023-12-14T23:42:15;16.40;;;8.63;;
5454;SDS011;2750;49.050;9.250;2023-12-14T23:47:17;13.70;;;9.00;;
5454;SDS011;2750;49.050;9.250;2023-12-14T23:52:19;16.90;;;9.30;;
5454;SDS011;2750;49.050;9.250;2023-12-14T23:57:21;16.80;;;9.80;;
